Time;durP1;ratioP1;P1;durP2;ratioP2;P2;SDS_P1;SDS_P2;PMS_P1;PMS_P2;Temp;Humidity;BMP_temperature;BMP_pressure;BME280_temperature;BME280_humidity;BME280_pressure;Samples;Min_cycle;Max_cycle;Signal;HPM_P1;HPM_P2
2023/09/20 00:00:13;;;;;;;10.10;1.65;;;;;;;18.36;81.70;100678.22;10389491;28;20746;-72
2023/09/20 00:05:39;;;;;;;7.70;1.80;;;;;;;18.41;81.54;100684.00;10381221;28;20139;-72
2023/09/20 00:11:01;;;;;;;7.63;1.85;;;;;;;18.40;81.66;100682.34;10393346;28;20123;-72
2023/09/20 00:16:23;;;;;;;5.22;1.73;;;;;;;18.40;81.93;100685.81;10391392;28;20664;-71
2023/09/20 00:21:46;;;;;;;6.50;1.73;;;;;;;18.43;81.49;100679.53;10404107;28;20049;-71
2023/09/20 00:27:08;;;;;;;12.70;1.95;;;;;;;18.44;81.41;100691.72;10392056;28;22785;-71
2023/09/20 00:32:32;;;;;;;6.88;1.70;;;;;;;18.44;81.40;100689.91;10383537;28;20046;-71
2023/09/20 00:37:54;;;;;;;8.07;1.60;;;;;;;18.47;81.07;100692.38;10394469;28;20128;-71
2023/09/20 00:43:23;;;;;;;6.75;1.67;;;;;;;18.44;81.71;100691.72;10389908;28;20209;-71
2023/09/20 00:48:45;;;;;;;5.13;1.70;;;;;;;18.43;81.68;100680.41;10390650;28;20709;-71
2023/09/20 00:54:07;;;;;;;7.43;1.50;;;;;;;18.39;82.35;100699.84;10392420;28;20101;-71
2023/09/20 00:59:32;;;;;;;9.85;1.95;;;;;;;18.22;83.00;100694.81;10393354;28;20406;-71
2023/09/20 01:04:54;;;;;;;;;;;;;;;18.18;85.07;100706.47;10403539;28;20049;-71
2023/09/20 01:10:16;;;;;;;4.47;1.58;;;;;;;18.17;83.40;100699.53;10389633;28;19926;-71
2023/09/20 01:15:38;;;;;;;5.90;2.10;;;;;;;18.12;84.71;100717.31;10390918;28;20406;-71
2023/09/20 01:21:03;;;;;;;8.35;1.88;;;;;;;18.01;86.43;100710.13;10409274;28;20076;-72
2023/09/20 01:26:25;;;;;;;10.18;2.20;;;;;;;17.96;87.20;100706.13;10422088;28;20050;-71
2023/09/20 01:31:47;;;;;;;7.05;1.98;;;;;;;17.95;86.23;100700.03;10398634;28;20061;-71
2023/09/20 01:37:09;;;;;;;5.88;1.67;;;;;;;18.03;85.90;100702.19;10404460;28;20092;-71
2023/09/20 01:42:30;;;;;;;5.95;1.77;;;;;;;17.98;85.33;100693.78;10398570;28;20315;-71
2023/09/20 01:47:54;;;;;;;12.10;2.03;;;;;;;18.05;84.55;100701.16;10392404;28;20041;-71
2023/09/20 01:53:16;;;;;;;7.18;1.80;;;;;;;18.05;84.79;100674.97;10384962;28;20901;-71
2023/09/20 01:58:38;;;;;;;5.13;1.90;;;;;;;18.10;85.54;100674.66;10375461;28;20081;-70
2023/09/20 02:04:00;;;;;;;8.20;2.00;;;;;;;18.16;84.23;100662.94;10392620;28;20540;-71
2023/09/20 02:09:22;;;;;;;5.90;1.88;;;;;;;18.17;84.34;100652.38;10392867;28;20145;-71
2023/09/20 02:14:46;;;;;;;7.63;1.83;;;;;;;18.22;83.56;100652.91;10388481;28;20087;-71
2023/09/20 02:20:09;;;;;;;5.78;1.75;;;;;;;18.28;82.69;100655.13;10399787;28;20029;-71
2023/09/20 02:25:31;;;;;;;10.27;1.85;;;;;;;18.31;82.21;100664.59;10396007;28;20119;-71
2023/09/20 02:30:53;;;;;;;8.27;1.70;;;;;;;18.34;81.77;100656.53;10394846;28;20054;-71
2023/09/20 02:36:16;;;;;;;6.18;2.10;;;;;;;18.37;81.82;100665.03;10397435;28;20061;-71
2023/09/20 02:41:38;;;;;;;12.25;2.08;;;;;;;18.40;81.42;100649.13;10391337;28;20041;-71
2023/09/20 02:47:00;;;;;;;7.75;1.90;;;;;;;18.46;81.25;100658.41;10398101;28;20048;-71
2023/09/20 02:52:21;;;;;;;7.70;1.80;;;;;;;18.48;80.94;100653.88;10397457;28;20486;-71
2023/09/20 02:57:44;;;;;;;4.93;1.90;;;;;;;18.53;80.68;100657.88;10396612;28;20407;-71
2023/09/20 03:03:07;;;;;;;4.07;1.73;;;;;;;18.54;80.88;100656.09;10390103;28;20089;-71
2023/09/20 03:08:29;;;;;;;6.82;1.60;;;;;;;18.53;80.49;100650.00;10390870;28;20126;-71
2023/09/20 03:13:52;;;;;;;8.90;1.83;;;;;;;18.57;80.31;100645.44;10396952;28;20138;-71
2023/09/20 03:19:14;;;;;;;6.50;1.77;;;;;;;18.56;80.49;100651.59;10403305;28;20120;-71
2023/09/20 03:24:37;;;;;;;6.43;2.00;;;;;;;18.59;80.46;100644.38;10386507;28;20050;-71
2023/09/20 03:30:00;;;;;;;7.53;2.08;;;;;;;18.62;80.35;100648.59;10391512;28;20085;-71
2023/09/20 03:35:21;;;;;;;9.07;2.17;;;;;;;18.65;80.46;100633.50;10396015;28;20528;-71
2023/09/20 03:40:43;;;;;;;12.68;1.98;;;;;;;18.66;80.53;100629.91;10396363;28;20049;-71
2023/09/20 03:46:05;;;;;;;4.93;1.48;;;;;;;18.69;80.16;100640.22;10394323;28;20048;-71
2023/09/20 03:51:26;;;;;;;5.35;1.77;;;;;;;18.69;80.39;100621.88;10393802;28;20061;-71
2023/09/20 03:56:48;;;;;;;8.07;1.90;;;;;;;18.73;80.00;100636.41;10409274;28;20425;-71
2023/09/20 04:02:14;;;;;;;6.47;1.85;;;;;;;18.75;79.69;100626.69;10387053;28;20053;-71
2023/09/20 04:07:36;;;;;;;7.35;1.60;;;;;;;18.74;80.06;100632.88;10391304;28;20037;-71
2023/09/20 04:12:57;;;;;;;6.65;1.85;;;;;;;18.76;79.68;100625.75;10393366;28;20045;-71
2023/09/20 04:18:19;;;;;;;6.22;1.95;;;;;;;18.76;79.35;100612.63;10388930;28;20045;-71
2023/09/20 04:23:41;;;;;;;8.23;1.98;;;;;;;18.74;79.42;100611.91;10400995;28;20068;-71
2023/09/20 04:29:03;;;;;;;5.53;1.60;;;;;;;18.78;79.80;100633.50;10388454;28;20098;-71
2023/09/20 04:34:25;;;;;;;6.82;2.08;;;;;;;18.76;80.08;100631.00;10403674;28;20053;-71
2023/09/20 04:39:47;;;;;;;5.85;2.03;;;;;;;18.79;79.83;100629.94;10385879;28;20053;-71
2023/09/20 04:45:12;;;;;;;5.05;1.73;;;;;;;18.78;79.67;100634.34;10393412;28;20301;-71
2023/09/20 04:50:34;;;;;;;;;;;;;;;18.76;79.58;100628.38;10410322;28;20041;-71
2023/09/20 04:55:56;;;;;;;7.78;1.70;;;;;;;18.72;80.06;100626.88;10405136;28;19994;-70
2023/09/20 05:01:18;;;;;;;5.82;1.90;;;;;;;18.71;79.80;100624.38;10373820;28;20053;-71
2023/09/20 05:06:43;;;;;;;9.60;2.15;;;;;;;18.63;79.77;100617.03;10391582;28;20370;-71
2023/09/20 05:12:05;;;;;;;9.27;2.10;;;;;;;18.60;79.99;100626.88;10398701;28;20063;-71
2023/09/20 05:17:27;;;;;;;7.18;2.13;;;;;;;18.59;80.19;100627.78;10402568;28;20048;-71
2023/09/20 05:22:49;;;;;;;6.85;1.73;;;;;;;18.56;80.16;100628.84;10402885;28;20643;-71
2023/09/20 05:28:10;;;;;;;6.13;2.08;;;;;;;18.49;80.14;100631.97;10411306;28;20049;-72
2023/09/20 05:33:32;;;;;;;4.55;2.00;;;;;;;18.39;80.38;100615.97;10390073;28;20048;-70
2023/09/20 05:38:54;;;;;;;7.50;2.00;;;;;;;18.37;80.49;100625.72;10406916;28;20072;-71
2023/09/20 05:44:18;;;;;;;6.32;1.90;;;;;;;18.33;80.73;100632.09;10389030;28;20054;-70
2023/09/20 05:49:40;;;;;;;6.80;2.50;;;;;;;18.31;81.12;100623.53;10395957;28;20064;-71
2023/09/20 05:55:03;;;;;;;11.10;2.08;;;;;;;18.26;81.18;100641.28;10396511;28;20546;-70
2023/09/20 06:00:24;;;;;;;5.68;1.92;;;;;;;18.23;81.36;100641.50;10394104;28;20134;-70
2023/09/20 06:05:48;;;;;;;6.35;2.10;;;;;;;18.24;81.20;100647.59;10407904;28;20477;-70
2023/09/20 06:11:10;;;;;;;7.38;1.92;;;;;;;18.22;81.31;100650.28;10381407;28;20125;-70
2023/09/20 06:16:32;;;;;;;7.63;1.80;;;;;;;18.24;81.63;100650.22;10383624;28;20136;-71
2023/09/20 06:21:54;;;;;;;4.13;1.85;;;;;;;18.24;81.61;100635.31;10394298;28;20750;-70
2023/09/20 06:27:16;;;;;;;11.23;2.10;;;;;;;18.30;81.53;100628.84;10396375;28;20052;-71
2023/09/20 06:32:37;;;;;;;7.00;1.70;;;;;;;18.31;81.48;100633.16;10392171;28;20651;-70
2023/09/20 06:38:00;;;;;;;5.32;1.48;;;;;;;18.32;81.20;100630.44;10389733;28;20136;-70
2023/09/20 06:43:22;;;;;;;6.70;1.75;;;;;;;18.35;81.32;100639.88;10380476;28;20049;-70
2023/09/20 06:48:44;;;;;;;6.97;1.90;;;;;;;18.33;81.29;100626.03;10391710;28;20054;-71
2023/09/20 06:54:08;;;;;;;6.75;1.80;;;;;;;18.37;81.58;100638.81;10396025;28;20057;-71
2023/09/20 06:59:32;;;;;;;5.13;1.52;;;;;;;18.41;81.31;100645.59;10399539;28;20049;-71
2023/09/20 07:04:55;;;;;;;5.13;1.70;;;;;;;18.47;81.13;100645.19;10391096;28;20042;-72
2023/09/20 07:10:17;;;;;;;5.78;1.88;;;;;;;18.54;80.93;100646.47;10397564;28;20134;-70
2023/09/20 07:15:39;;;;;;;7.30;1.95;;;;;;;18.61;81.25;100650.34;10389054;28;20065;-71
2023/09/20 07:21:02;;;;;;;11.40;1.90;;;;;;;18.68;80.77;100653.44;10391332;28;20045;-70
2023/09/20 07:26:25;;;;;;;5.50;1.70;;;;;;;18.74;80.60;100656.47;10397655;28;20145;-71
2023/09/20 07:31:48;;;;;;;5.72;1.60;;;;;;;18.83;80.67;100649.75;10385625;28;20065;-70
2023/09/20 07:37:12;;;;;;;7.15;2.00;;;;;;;18.94;80.48;100650.75;10392697;28;20091;-70
2023/09/20 07:42:34;;;;;;;6.40;1.52;;;;;;;19.08;80.20;100654.22;10405163;28;20100;-70
2023/09/20 07:47:55;;;;;;;4.80;1.92;;;;;;;19.18;80.32;100644.75;10393740;28;20131;-71
2023/09/20 07:53:19;;;;;;;7.43;1.88;;;;;;;19.24;80.12;100641.72;10386868;28;20619;-70
2023/09/20 07:58:41;;;;;;;5.13;1.63;;;;;;;19.29;79.80;100635.22;10399385;28;20140;-70
2023/09/20 08:04:06;;;;;;;7.60;2.00;;;;;;;19.32;79.47;100636.84;10391645;28;20060;-71
2023/09/20 08:09:28;;;;;;;4.33;1.80;;;;;;;19.32;79.68;100639.47;10398708;28;20083;-71
2023/09/20 08:14:49;;;;;;;5.63;1.80;;;;;;;19.32;79.46;100634.22;10390011;28;20494;-71
2023/09/20 08:20:11;;;;;;;8.70;1.83;;;;;;;19.35;79.66;100626.97;10375325;28;20072;-71
2023/09/20 08:59:48;;;;;;;5.93;2.03;;;;;;;19.85;78.07;100650.47;10412138;28;20037;-71
2023/09/20 09:05:12;;;;;;;6.75;2.42;;;;;;;19.97;78.04;100648.78;10427348;28;20493;-70
2023/09/20 09:10:34;;;;;;;4.82;2.00;;;;;;;20.12;77.84;100652.09;10385760;28;20065;-70
2023/09/20 09:15:56;;;;;;;8.05;2.60;;;;;;;20.23;77.36;100652.19;10396801;28;20129;-71
2023/09/20 09:21:18;;;;;;;6.47;2.28;;;;;;;20.37;77.12;100655.47;10399668;28;20061;-70
2023/09/20 09:26:39;;;;;;;6.88;2.40;;;;;;;20.38;75.95;100644.00;10397487;28;20056;-70
2023/09/20 09:32:02;;;;;;;5.60;1.90;;;;;;;20.42;76.38;100645.47;10396159;28;20111;-70
2023/09/20 09:37:25;;;;;;;7.43;2.15;;;;;;;20.46;76.27;100632.94;10386654;28;20053;-71
2023/09/20 09:42:48;;;;;;;6.57;2.20;;;;;;;20.53;76.07;100656.03;10396530;28;20053;-71
2023/09/20 09:48:11;;;;;;;11.30;2.97;;;;;;;20.49;75.88;100651.94;10393147;28;20489;-71
2023/09/20 09:53:35;;;;;;;5.85;2.28;;;;;;;20.54;75.80;100649.84;10385096;28;20414;-70
2023/09/20 09:58:57;;;;;;;5.65;2.38;;;;;;;20.56;75.92;100639.19;10378813;28;20092;-70
2023/09/20 10:04:20;;;;;;;10.27;2.58;;;;;;;20.69;75.12;100637.34;10385531;28;20386;-71
2023/09/20 10:09:48;;;;;;;12.02;2.42;;;;;;;20.75;75.88;100645.59;10388383;28;20042;-71
2023/09/20 10:15:11;;;;;;;5.75;2.28;;;;;;;20.82;75.09;100652.06;10393621;28;20114;-71
2023/09/20 10:20:58;;;;;;;3.88;2.13;;;;;;;20.79;73.94;100649.69;10390440;28;20046;-71
2023/09/20 10:26:21;;;;;;;8.45;2.22;;;;;;;20.73;74.95;100671.16;10377547;28;20061;-70
2023/09/20 10:31:43;;;;;;;4.88;1.80;;;;;;;20.72;75.82;100651.09;10382441;28;20053;-70
2023/09/20 10:37:10;;;;;;;5.13;2.00;;;;;;;20.80;75.01;100666.31;10391728;28;20136;-70
2023/09/20 10:42:32;;;;;;;3.47;1.70;;;;;;;20.86;74.70;100658.78;10387366;28;20072;-70
2023/09/20 10:47:54;;;;;;;3.80;1.98;;;;;;;20.87;73.11;100663.09;10383496;28;20042;-71
2023/09/20 10:53:18;;;;;;;9.15;2.28;;;;;;;20.93;75.11;100654.72;10386813;28;20064;-70
2023/09/20 10:58:44;;;;;;;6.73;2.03;;;;;;;20.99;73.74;100642.91;10388157;28;20504;-70
2023/09/20 11:04:07;;;;;;;7.00;2.10;;;;;;;21.03;74.32;100633.84;10398504;28;20051;-70
2023/09/20 11:09:31;;;;;;;3.70;1.80;;;;;;;21.09;75.36;100629.91;10402730;28;20056;-70
2023/09/20 11:14:54;;;;;;;12.45;2.35;;;;;;;21.30;74.07;100630.91;10398978;28;20041;-70
2023/09/20 11:20:16;;;;;;;10.52;2.50;;;;;;;21.36;72.19;100638.31;10406975;28;20053;-70
2023/09/20 11:25:41;;;;;;;5.00;2.55;;;;;;;21.38;73.87;100625.88;10393371;28;20061;-69
2023/09/20 11:31:03;;;;;;;8.40;2.85;;;;;;;21.45;73.11;100634.97;10394077;28;20135;-70
2023/09/20 11:36:26;;;;;;;5.05;2.30;;;;;;;21.48;71.53;100626.84;10397864;28;20061;-70
2023/09/20 11:41:47;;;;;;;9.70;2.10;;;;;;;21.52;72.82;100629.09;10391002;28;20033;-70
2023/09/20 11:47:09;;;;;;;5.88;2.00;;;;;;;21.62;72.82;100635.34;10395693;28;20456;-69
2023/09/20 11:52:31;;;;;;;6.82;2.00;;;;;;;21.67;70.83;100622.63;10395599;28;20054;-70
2023/09/20 11:57:53;;;;;;;5.15;2.10;;;;;;;21.69;71.37;100640.94;10394357;28;20065;-70
2023/09/20 12:03:14;;;;;;;5.95;2.40;;;;;;;21.71;71.14;100629.34;10394885;28;20053;-70
2023/09/20 12:08:37;;;;;;;5.38;2.63;;;;;;;21.77;71.20;100628.00;10390758;28;20037;-69
2023/09/20 12:13:59;;;;;;;5.95;2.33;;;;;;;21.83;70.96;100628.38;10393189;28;21492;-70
2023/09/20 12:19:21;;;;;;;4.07;2.72;;;;;;;21.88;71.96;100609.59;10396480;28;20574;-69
2023/09/20 12:24:42;;;;;;;4.93;2.50;;;;;;;21.94;71.65;100619.59;10404787;28;20501;-69
2023/09/20 12:30:05;;;;;;;5.28;2.60;;;;;;;22.10;70.57;100614.78;10412002;28;20521;-69
2023/09/20 12:35:30;;;;;;;4.50;2.58;;;;;;;22.17;69.92;100623.88;10399532;28;20038;-69
2023/09/20 12:40:52;;;;;;;3.72;2.03;;;;;;;22.22;70.64;100619.06;10394703;28;20408;-70
2023/09/20 12:46:14;;;;;;;7.03;2.15;;;;;;;22.24;69.18;100617.13;10392377;28;20064;-70
2023/09/20 12:51:36;;;;;;;4.28;2.00;;;;;;;22.29;69.52;100608.84;10432111;28;20037;-70
2023/09/20 12:56:57;;;;;;;5.50;2.58;;;;;;;22.28;70.86;100601.91;10404255;28;20045;-69
2023/09/20 13:02:20;;;;;;;5.00;2.30;;;;;;;22.33;70.46;100586.53;10402302;28;20041;-70
2023/09/20 13:07:42;;;;;;;6.32;2.22;;;;;;;22.44;68.13;100587.31;10401381;28;20041;-69
2023/09/20 13:13:08;;;;;;;5.55;2.28;;;;;;;22.33;67.24;100584.72;10394218;28;20442;-69
2023/09/20 13:18:30;;;;;;;5.63;2.38;;;;;;;22.37;69.30;100570.34;10397603;28;20046;-70
2023/09/20 13:23:52;;;;;;;5.43;2.20;;;;;;;22.50;68.58;100567.50;10395385;28;20242;-69
2023/09/20 13:29:14;;;;;;;9.00;2.45;;;;;;;22.58;68.36;100565.13;10399470;28;20140;-69
2023/09/20 13:34:37;;;;;;;4.55;1.83;;;;;;;22.69;67.13;100557.94;10392196;28;20053;-69
2023/09/20 13:39:58;;;;;;;4.57;2.13;;;;;;;22.61;67.12;100547.22;10393502;28;20042;-69
2023/09/20 13:45:21;;;;;;;4.80;1.85;;;;;;;22.55;67.48;100555.66;10402389;28;20050;-68
2023/09/20 13:50:43;;;;;;;5.00;1.90;;;;;;;22.53;68.46;100546.13;10395229;28;20046;-69
2023/09/20 13:56:06;;;;;;;4.00;1.95;;;;;;;22.53;69.51;100539.06;10388540;28;20161;-70
2023/09/20 14:01:27;;;;;;;4.53;1.73;;;;;;;22.58;68.20;100521.06;10393537;28;20052;-69
2023/09/20 14:06:49;;;;;;;6.15;1.85;;;;;;;22.68;68.70;100527.25;10378394;28;20108;-69
2023/09/20 14:12:15;;;;;;;2.67;1.70;;;;;;;22.67;67.93;100530.03;10404709;28;20053;-69
2023/09/20 14:17:37;;;;;;;3.22;1.88;;;;;;;22.64;68.89;100525.84;10398764;28;20160;-69
2023/09/20 14:22:59;;;;;;;4.90;1.77;;;;;;;22.57;68.32;100514.13;10404377;28;20061;-69
2023/09/20 14:28:22;;;;;;;4.03;1.60;;;;;;;22.60;68.02;100524.44;10393932;28;20052;-69
2023/09/20 14:33:45;;;;;;;8.05;2.25;;;;;;;22.64;68.73;100504.75;10392187;28;20049;-68
2023/09/20 14:39:07;;;;;;;2.38;1.65;;;;;;;22.74;69.09;100503.00;10401995;28;20038;-69
2023/09/20 14:44:29;;;;;;;7.57;1.73;;;;;;;22.78;70.31;100490.38;10389043;28;20233;-70
2023/09/20 14:49:51;;;;;;;3.78;1.77;;;;;;;22.65;68.78;100485.28;10406250;28;20069;-69
2023/09/20 14:55:15;;;;;;;4.78;1.98;;;;;;;22.61;69.33;100494.47;10386759;28;20045;-69
2023/09/20 15:00:38;;;;;;;4.93;1.67;;;;;;;22.60;69.20;100476.94;10394724;28;20046;-69
2023/09/20 15:06:00;;;;;;;4.32;1.88;;;;;;;22.67;69.26;100467.53;10400564;28;20165;-69
2023/09/20 15:11:22;;;;;;;6.03;1.60;;;;;;;22.80;68.88;100473.41;10410381;28;20041;-69
2023/09/20 15:16:43;;;;;;;3.80;1.73;;;;;;;22.93;68.17;100471.41;10397545;28;20061;-69
2023/09/20 15:22:06;;;;;;;3.85;1.63;;;;;;;23.00;68.94;100453.22;10398650;28;20402;-69
2023/09/20 15:27:29;;;;;;;4.05;1.73;;;;;;;23.03;69.04;100436.28;10407379;28;20055;-70
2023/09/20 15:32:51;;;;;;;5.10;1.80;;;;;;;23.22;68.44;100446.91;10386704;28;20362;-69
2023/09/20 15:38:13;;;;;;;5.43;1.70;;;;;;;23.38;68.27;100436.66;10394726;28;20048;-69
2023/09/20 15:43:43;;;;;;;3.85;1.70;;;;;;;23.43;66.53;100423.88;10399371;28;20149;-69
2023/09/20 15:49:06;;;;;;;4.28;1.35;;;;;;;23.59;67.85;100418.88;10396424;28;20486;-69
2023/09/20 15:54:28;;;;;;;3.22;1.60;;;;;;;23.56;66.88;100408.59;10400731;28;20392;-69
2023/09/20 15:59:50;;;;;;;4.47;1.63;;;;;;;23.50;68.04;100412.63;10395473;28;20049;-69
2023/09/20 16:05:13;;;;;;;4.63;1.60;;;;;;;23.42;66.71;100406.38;10393533;28;20037;-69
2023/09/20 16:10:35;;;;;;;3.78;1.60;;;;;;;23.27;66.81;100418.25;10395604;28;20064;-69
2023/09/20 16:15:59;;;;;;;4.45;1.70;;;;;;;23.10;65.02;100427.69;10396260;28;20052;-69
2023/09/20 16:21:20;;;;;;;3.63;1.52;;;;;;;23.00;63.36;100426.00;10394013;28;20063;-69
2023/09/20 16:26:45;;;;;;;;;;;;;;;22.86;61.80;100433.31;10398066;28;20038;-69
2023/09/20 16:32:07;;;;;;;2.40;1.45;;;;;;;22.69;66.90;100433.13;10417554;28;19924;-70
2023/09/20 16:37:30;;;;;;;4.20;1.70;;;;;;;22.59;65.68;100437.50;10395301;28;20050;-69
2023/09/20 16:42:52;;;;;;;4.07;1.40;;;;;;;22.44;63.45;100434.34;10396965;28;20461;-70
2023/09/20 16:48:14;;;;;;;5.00;1.58;;;;;;;22.39;65.83;100436.53;10380590;28;20056;-69
2023/09/20 16:53:36;;;;;;;5.05;1.35;;;;;;;22.31;66.40;100451.31;10392017;28;20049;-70
2023/09/20 16:58:58;;;;;;;4.28;1.40;;;;;;;22.21;65.00;100448.66;10410873;28;20037;-70
2023/09/20 17:04:21;;;;;;;4.40;1.30;;;;;;;22.15;65.31;100450.94;10402992;28;20114;-69
2023/09/20 17:09:43;;;;;;;1.60;1.15;;;;;;;22.12;66.30;100443.31;10403967;28;20140;-70
2023/09/20 17:15:05;;;;;;;4.97;1.50;;;;;;;22.01;67.33;100440.75;10396986;28;20578;-70
2023/09/20 17:20:28;;;;;;;4.15;1.33;;;;;;;21.95;67.43;100452.63;10393741;28;20049;-69
2023/09/20 17:25:51;;;;;;;3.97;1.40;;;;;;;21.91;68.03;100451.19;10382696;28;20057;-70
2023/09/20 17:31:13;;;;;;;3.63;1.60;;;;;;;21.81;67.04;100447.66;10395744;28;20046;-70
2023/09/20 17:36:38;;;;;;;3.03;2.17;;;;;;;21.77;68.13;100443.56;10384890;28;20078;-70
2023/09/20 17:42:01;;;;;;;3.15;1.92;;;;;;;21.65;68.34;100450.69;10391154;28;20042;-70
2023/09/20 17:47:23;;;;;;;4.68;2.20;;;;;;;21.60;69.11;100454.66;10404573;28;20120;-70
2023/09/20 17:52:46;;;;;;;3.90;1.98;;;;;;;21.53;69.10;100461.38;10392982;28;20133;-69
2023/09/20 17:58:09;;;;;;;4.57;1.80;;;;;;;21.44;69.88;100452.44;10393509;28;20381;-70
2023/09/20 18:03:33;;;;;;;4.00;1.38;;;;;;;21.37;70.18;100460.97;10397747;28;20058;-70
2023/09/20 18:08:58;;;;;;;3.95;2.28;;;;;;;21.26;70.46;100463.63;10404460;28;20153;-70
2023/09/20 18:14:20;;;;;;;3.50;1.80;;;;;;;21.18;70.64;100464.22;10392486;28;20042;-70
2023/09/20 18:19:43;;;;;;;3.13;1.80;;;;;;;21.13;71.39;100447.13;10383457;28;20374;-69
2023/09/20 18:25:09;;;;;;;4.10;1.90;;;;;;;20.98;70.82;100450.00;10389816;28;20049;-70
2023/09/20 18:30:32;;;;;;;3.47;1.80;;;;;;;20.94;71.45;100456.44;10388975;28;20642;-70
2023/09/20 18:35:53;;;;;;;2.60;1.70;;;;;;;20.92;71.75;100460.16;10388936;28;20050;-70
2023/09/20 18:41:15;;;;;;;3.35;1.50;;;;;;;20.85;72.13;100454.53;10391908;28;20049;-70
2023/09/20 18:46:37;;;;;;;4.50;1.45;;;;;;;20.82;72.46;100452.13;10386386;28;20203;-70
2023/09/20 18:52:00;;;;;;;3.03;1.80;;;;;;;20.83;72.05;100452.97;10379610;28;20486;-70
2023/09/20 18:57:25;;;;;;;5.38;2.30;;;;;;;20.73;71.50;100454.66;10411960;28;20121;-70
2023/09/20 19:02:48;;;;;;;3.33;1.77;;;;;;;20.73;72.04;100454.66;10402091;28;20048;-70
2023/09/20 19:08:12;;;;;;;4.65;2.17;;;;;;;20.61;71.85;100442.44;10399908;28;20049;-70
2023/09/20 19:13:34;;;;;;;6.30;1.77;;;;;;;20.59;72.79;100442.56;10395838;28;20037;-70
2023/09/20 19:18:58;;;;;;;3.33;1.73;;;;;;;20.59;73.12;100444.34;10417207;28;20120;-70
2023/09/20 19:24:23;;;;;;;2.97;1.37;;;;;;;20.51;72.27;100439.69;10387418;28;20045;-70
2023/09/20 19:29:45;;;;;;;3.55;1.80;;;;;;;20.50;72.90;100443.28;10386752;28;20033;-70
2023/09/20 19:35:07;;;;;;;11.10;2.10;;;;;;;20.42;73.22;100429.88;10395429;28;20049;-70
2023/09/20 19:40:29;;;;;;;4.32;1.83;;;;;;;20.40;73.79;100428.34;10392320;28;20063;-70
2023/09/20 19:45:50;;;;;;;2.80;1.60;;;;;;;20.32;73.51;100422.84;10402431;28;20050;-70
2023/09/20 19:51:12;;;;;;;5.28;1.90;;;;;;;20.29;73.83;100429.16;10396421;28;20432;-70
2023/09/20 19:56:36;;;;;;;4.30;2.15;;;;;;;20.20;73.82;100435.09;10410969;28;20045;-70
2023/09/20 20:01:58;;;;;;;4.03;2.10;;;;;;;20.14;74.28;100430.31;10393427;28;20147;-70
2023/09/20 20:07:20;;;;;;;7.05;2.00;;;;;;;20.13;74.58;100426.00;10378258;28;20153;-70
2023/09/20 20:12:48;;;;;;;3.63;1.92;;;;;;;20.04;74.81;100416.19;10377937;28;20452;-70
2023/09/20 20:18:10;;;;;;;4.30;1.70;;;;;;;20.09;75.20;100411.41;10382582;28;20513;-70
2023/09/20 20:23:32;;;;;;;4.10;1.83;;;;;;;20.07;75.36;100421.19;10402628;28;20042;-70
2023/09/20 20:28:54;;;;;;;3.88;1.88;;;;;;;19.96;75.50;100405.44;10399585;28;20042;-70
2023/09/20 20:34:16;;;;;;;5.68;1.80;;;;;;;19.96;76.11;100400.19;10388369;28;20064;-69
2023/09/20 20:39:38;;;;;;;3.17;1.55;;;;;;;19.88;76.31;100402.53;10389079;28;20120;-70
2023/09/20 20:45:01;;;;;;;2.97;1.67;;;;;;;19.88;76.30;100394.66;10402326;28;20104;-69
2023/09/20 20:50:28;;;;;;;5.38;1.80;;;;;;;19.80;76.45;100383.88;10405533;28;20049;-70
2023/09/20 20:56:02;;;;;;;3.30;1.70;;;;;;;19.71;77.22;100377.53;10389857;28;20514;-69
2023/09/20 21:01:24;;;;;;;3.42;1.80;;;;;;;19.71;77.19;100374.06;10386076;28;20045;-69
2023/09/20 21:06:47;;;;;;;3.50;1.83;;;;;;;19.72;77.11;100360.81;10386888;28;20057;-69
2023/09/20 21:12:09;;;;;;;4.10;1.70;;;;;;;19.67;77.29;100348.97;10381966;28;20056;-69
2023/09/20 21:17:32;;;;;;;4.50;1.90;;;;;;;19.62;77.67;100349.34;10392919;28;20410;-69
2023/09/20 21:22:55;;;;;;;5.47;1.92;;;;;;;19.61;77.57;100346.84;10370636;28;20053;-69
2023/09/20 21:28:16;;;;;;;4.10;1.63;;;;;;;19.57;77.89;100334.88;10383002;28;20045;-69
2023/09/20 21:33:38;;;;;;;4.55;1.58;;;;;;;19.49;78.12;100330.19;10375036;28;20072;-69
2023/09/20 21:39:00;;;;;;;4.15;1.88;;;;;;;19.47;78.42;100324.22;10389391;28;20447;-69
2023/09/20 21:44:22;;;;;;;3.97;1.90;;;;;;;19.41;78.09;100316.81;10377343;28;20873;-69
2023/09/20 21:49:45;;;;;;;3.63;1.65;;;;;;;19.41;78.41;100314.19;10390771;28;20049;-69
2023/09/20 21:55:08;;;;;;;5.72;2.15;;;;;;;19.41;77.91;100303.69;10366366;28;20513;-69
2023/09/20 22:00:30;;;;;;;2.83;1.70;;;;;;;19.44;78.19;100281.63;10385717;28;20040;-69
2023/09/20 22:05:52;;;;;;;2.42;1.65;;;;;;;19.43;77.59;100285.22;10379381;28;20067;-69
2023/09/20 22:11:14;;;;;;;3.60;1.30;;;;;;;19.46;77.86;100280.56;10364792;28;20045;-69
2023/09/20 22:16:39;;;;;;;2.53;1.60;;;;;;;19.52;77.04;100271.41;10378914;28;20111;-69
2023/09/20 22:22:00;;;;;;;5.28;1.80;;;;;;;19.52;77.08;100259.09;10390529;28;20053;-69
2023/09/20 22:27:22;;;;;;;2.97;1.60;;;;;;;19.53;76.83;100262.56;10386489;28;20060;-69
2023/09/20 22:32:44;;;;;;;3.53;1.75;;;;;;;19.54;77.28;100261.63;10369083;28;20068;-69
2023/09/20 22:38:06;;;;;;;4.10;1.75;;;;;;;19.57;76.72;100253.50;10358452;28;20061;-69
2023/09/20 22:43:30;;;;;;;4.45;1.63;;;;;;;19.48;76.97;100241.06;10367741;28;20053;-69
2023/09/20 22:48:53;;;;;;;5.25;1.73;;;;;;;19.39;77.19;100241.78;10359805;28;20148;-69
2023/09/20 22:54:15;;;;;;;2.83;1.80;;;;;;;19.52;76.99;100258.28;10375471;28;20064;-69
2023/09/20 22:59:37;;;;;;;4.20;1.80;;;;;;;19.38;77.41;100245.34;10390180;28;20049;-69
2023/09/20 23:04:59;;;;;;;4.25;1.70;;;;;;;19.43;77.17;100249.28;10376570;28;20244;-69
2023/09/20 23:10:23;;;;;;;3.58;1.70;;;;;;;19.39;77.36;100240.00;10391796;28;20049;-69
2023/09/20 23:15:51;;;;;;;6.32;1.98;;;;;;;19.42;77.11;100234.50;10399322;28;20045;-69
2023/09/20 23:21:15;;;;;;;5.57;1.90;;;;;;;19.39;77.20;100220.78;10406663;28;20445;-69
2023/09/20 23:26:38;;;;;;;2.50;1.80;;;;;;;19.40;76.84;100223.28;10395908;28;20696;-69
2023/09/20 23:32:02;;;;;;;3.47;1.67;;;;;;;19.36;76.81;100215.75;10392425;28;20048;-69
2023/09/20 23:37:25;;;;;;;3.13;1.53;;;;;;;19.41;76.83;100213.63;10402291;28;20053;-69
2023/09/20 23:42:47;;;;;;;3.10;1.38;;;;;;;19.43;76.61;100211.72;10400284;28;20041;-69
2023/09/20 23:48:08;;;;;;;3.50;1.75;;;;;;;19.38;76.60;100198.09;10375745;28;20045;-69
2023/09/20 23:53:30;;;;;;;4.35;1.80;;;;;;;19.35;76.73;100204.44;10397368;28;20632;-69
2023/09/20 23:59:11;;;;;;;3.72;1.48;;;;;;;19.33;77.02;100198.47;10384253;28;20548;-69
